createdAt,value
2024-03-13T00:00:12.023Z,101032.36
2024-03-13T00:03:19.140Z,101035.10
2024-03-13T00:06:06.694Z,101036.59
2024-03-13T00:08:54.602Z,101037.14
2024-03-13T00:11:42.291Z,101037.65
2024-03-13T00:14:29.681Z,101039.19
2024-03-13T00:17:26.981Z,101038.70
2024-03-13T00:20:14.135Z,101034.66
2024-03-13T00:23:03.420Z,101034.53
2024-03-13T00:25:50.722Z,101032.80
2024-03-13T00:28:37.740Z,101031.96
2024-03-13T00:31:24.613Z,101034.23
2024-03-13T00:34:11.986Z,101030.42
2024-03-13T00:36:59.349Z,101030.67
2024-03-13T00:39:46.909Z,101031.31
2024-03-13T00:42:34.262Z,101030.05
2024-03-13T00:45:21.908Z,101032.11
2024-03-13T00:48:08.928Z,101028.63
2024-03-13T00:51:01.864Z,101025.92
2024-03-13T00:53:49.899Z,101025.23
2024-03-13T00:56:39.580Z,101021.75
2024-03-13T00:59:31.001Z,101015.70
2024-03-13T01:02:18.134Z,101012.59
2024-03-13T01:05:08.851Z,101014.65
2024-03-13T01:07:58.185Z,101015.58
2024-03-13T01:10:45.217Z,101014.47
2024-03-13T01:13:32.400Z,101015.23
2024-03-13T01:16:19.594Z,101017.10
2024-03-13T01:19:06.698Z,101017.69
2024-03-13T01:21:56.499Z,101018.61
2024-03-13T01:24:44.636Z,101016.75
2024-03-13T01:27:31.794Z,101015.85
2024-03-13T01:30:19.209Z,101015.30
2024-03-13T01:33:07.340Z,101014.39
2024-03-13T01:35:54.365Z,101015.54
2024-03-13T01:38:41.283Z,101017.24
2024-03-13T01:41:46.936Z,101015.55
2024-03-13T01:44:54.680Z,101020.42
2024-03-13T01:48:00.264Z,101018.27
2024-03-13T01:51:06.499Z,101017.04
2024-03-13T01:54:12.009Z,101017.48
2024-03-13T01:57:04.180Z,101015.27
2024-03-13T02:00:11.131Z,101018.95
2024-03-13T02:02:58.252Z,101019.70
2024-03-13T02:05:48.794Z,101017.40
2024-03-13T02:08:37.435Z,101017.92
2024-03-13T02:11:26.699Z,101020.33
2024-03-13T02:14:16.254Z,101019.84
2024-03-13T02:17:03.761Z,101018.20
2024-03-13T02:19:55.654Z,101022.27
2024-03-13T02:22:42.933Z,101021.63
2024-03-13T02:25:35.722Z,101022.55
2024-03-13T02:28:36.422Z,101025.35
2024-03-13T02:31:23.597Z,101025.38
2024-03-13T02:34:11.996Z,101030.73
2024-03-13T02:37:00.273Z,101032.63
2024-03-13T02:39:47.994Z,101029.69
2024-03-13T02:42:34.975Z,101029.08
2024-03-13T02:45:23.403Z,101030.27
2024-03-13T02:48:15.440Z,101029.89
2024-03-13T02:51:02.464Z,101026.26
2024-03-13T02:53:49.881Z,101029.80
2024-03-13T02:56:37.452Z,101033.63
2024-03-13T02:59:26.597Z,101034.12
2024-03-13T03:02:14.032Z,101036.85
2024-03-13T03:05:01.184Z,101039.88
2024-03-13T03:07:48.202Z,101040.66
2024-03-13T03:10:35.321Z,101035.34
2024-03-13T03:13:22.779Z,101036.27
2024-03-13T03:16:10.056Z,101039.52
2024-03-13T03:18:57.378Z,101033.44
2024-03-13T03:21:45.080Z,101033.77
2024-03-13T03:24:32.529Z,101033.74
2024-03-13T03:27:20.055Z,101034.94
2024-03-13T03:30:07.756Z,101035.85
2024-03-13T03:32:57.515Z,101036.42
2024-03-13T03:35:45.466Z,101038.17
2024-03-13T03:38:33.555Z,101038.15
2024-03-13T03:41:20.429Z,101036.89
2024-03-13T03:44:07.425Z,101038.41
2024-03-13T03:46:54.961Z,101038.85
2024-03-13T03:49:42.429Z,101039.40
2024-03-13T03:52:29.460Z,101042.57
2024-03-13T03:55:16.826Z,101040.07
2024-03-13T03:58:04.097Z,101038.41
2024-03-13T04:00:51.279Z,101044.01
2024-03-13T04:03:38.370Z,101045.77
2024-03-13T04:06:27.040Z,101047.14
2024-03-13T04:09:17.438Z,101048.20
2024-03-13T04:12:04.444Z,101050.59
2024-03-13T04:14:52.299Z,101048.42
2024-03-13T04:17:41.446Z,101047.88
2024-03-13T04:20:28.488Z,101049.22
2024-03-13T04:23:15.793Z,101051.24
2024-03-13T04:26:06.384Z,101051.23
2024-03-13T04:28:54.192Z,101050.95
2024-03-13T04:31:41.772Z,101054.25
2024-03-13T04:34:29.029Z,101053.23
2024-03-13T04:37:17.098Z,101054.36
2024-03-13T04:40:09.354Z,101052.55
2024-03-13T04:42:56.492Z,101052.90
2024-03-13T04:45:43.483Z,101051.67
2024-03-13T04:48:30.498Z,101054.65
2024-03-13T04:51:17.508Z,101058.42
2024-03-13T04:54:07.808Z,101060.52
2024-03-13T04:56:55.243Z,101060.54
2024-03-13T04:59:44.319Z,101056.33
2024-03-13T05:02:31.415Z,101060.55
2024-03-13T05:05:18.423Z,101066.48
2024-03-13T05:08:09.507Z,101071.45
2024-03-13T05:10:57.908Z,101075.02
2024-03-13T05:13:47.883Z,101078.75
2024-03-13T05:16:34.922Z,101083.02
2024-03-13T05:19:22.066Z,101084.89
2024-03-13T05:22:10.659Z,101087.65
2024-03-13T05:24:59.921Z,101088.77
2024-03-13T05:27:48.073Z,101091.14
2024-03-13T05:30:35.879Z,101093.20
2024-03-13T05:33:22.837Z,101099.11
2024-03-13T05:36:13.248Z,101095.41
2024-03-13T05:39:00.428Z,101098.73
2024-03-13T05:41:51.354Z,101099.74
2024-03-13T05:44:39.784Z,101099.55
2024-03-13T05:47:27.516Z,101103.70
2024-03-13T05:50:18.859Z,101102.05
2024-03-13T05:53:05.976Z,101103.70
2024-03-13T05:55:53.106Z,101105.48
2024-03-13T05:58:42.945Z,101109.62
2024-03-13T06:01:30.356Z,101113.30
2024-03-13T06:04:21.609Z,101110.91
2024-03-13T06:07:09.280Z,101109.29
2024-03-13T06:09:56.369Z,101111.52
2024-03-13T06:12:43.469Z,101110.94
2024-03-13T06:15:31.026Z,101114.23
2024-03-13T06:18:19.985Z,101111.52
2024-03-13T06:21:08.629Z,101120.16
2024-03-13T06:24:02.059Z,101122.20
2024-03-13T06:26:51.854Z,101123.69
2024-03-13T06:29:58.726Z,101122.05
2024-03-13T06:32:46.806Z,101125.39
2024-03-13T06:35:34.808Z,101125.58
2024-03-13T06:38:22.188Z,101130.86
2024-03-13T06:41:10.225Z,101128.50
2024-03-13T06:43:57.209Z,101128.53
2024-03-13T06:46:44.500Z,101128.01
2024-03-13T06:49:31.722Z,101129.70
2024-03-13T06:52:18.930Z,101130.05
2024-03-13T06:55:06.394Z,101130.95
2024-03-13T06:57:53.412Z,101132.23
2024-03-13T07:00:42.519Z,101136.05
2024-03-13T07:03:30.421Z,101132.23
2024-03-13T07:06:19.641Z,101133.10
2024-03-13T07:09:08.616Z,101133.16
2024-03-13T07:11:58.980Z,101135.26
2024-03-13T07:14:46.249Z,101138.16
2024-03-13T07:17:33.143Z,101138.80
2024-03-13T07:20:20.062Z,101138.80
2024-03-13T07:23:10.150Z,101141.59
2024-03-13T07:25:57.558Z,101141.86
2024-03-13T07:28:44.702Z,101146.14
2024-03-13T07:31:32.119Z,101146.33
2024-03-13T07:34:20.795Z,101145.67
2024-03-13T07:37:08.053Z,101147.33
2024-03-13T07:39:58.659Z,101144.27
2024-03-13T07:42:45.820Z,101145.80
2024-03-13T07:45:32.953Z,101143.79
2024-03-13T07:48:19.816Z,101149.16
2024-03-13T07:51:11.054Z,101146.05
2024-03-13T07:53:59.917Z,101151.95
2024-03-13T07:56:47.143Z,101155.30
2024-03-13T07:59:34.140Z,101153.67
2024-03-13T08:02:21.620Z,101154.46
2024-03-13T08:05:08.785Z,101157.41
2024-03-13T09:05:57.614Z,101196.94
2024-03-13T09:08:50.662Z,101207.84
2024-03-13T09:11:40.760Z,101215.54
2024-03-13T09:14:28.445Z,101217.02
2024-03-13T09:17:15.430Z,101219.02
2024-03-13T09:20:03.117Z,101218.30
2024-03-13T09:22:50.173Z,101216.48
2024-03-13T09:25:37.285Z,101217.03
2024-03-13T09:28:25.286Z,101224.55
2024-03-13T09:31:12.715Z,101225.11
2024-03-13T09:34:00.984Z,101229.36
2024-03-13T09:36:48.054Z,101232.02
2024-03-13T09:39:36.988Z,101236.41
2024-03-13T09:42:25.351Z,101242.88
2024-03-13T09:45:18.015Z,101243.66
2024-03-13T09:48:06.699Z,101251.02
2024-03-13T09:50:55.507Z,101252.33
2024-03-13T09:53:43.489Z,101253.25
2024-03-13T09:56:32.179Z,101250.58
2024-03-13T09:59:19.297Z,101258.63
2024-03-13T10:02:15.745Z,101253.10
2024-03-13T10:05:04.451Z,101258.80
2024-03-13T10:07:51.822Z,101257.52
2024-03-13T10:10:42.165Z,101257.88
2024-03-13T10:13:34.888Z,101261.71
2024-03-13T10:16:24.011Z,101263.58
2024-03-13T10:19:19.037Z,101261.16
2024-03-13T10:22:08.344Z,101260.46
2024-03-13T10:25:00.291Z,101261.02
2024-03-13T10:27:47.440Z,101263.45
2024-03-13T10:30:34.486Z,101263.98
2024-03-13T10:33:24.371Z,101262.33
2024-03-13T10:36:15.612Z,101263.24
2024-03-13T10:39:05.536Z,101260.84
2024-03-13T10:41:52.806Z,101259.45
2024-03-13T10:44:40.068Z,101265.48
2024-03-13T10:47:30.394Z,101269.95
2024-03-13T10:50:17.492Z,101268.31
2024-03-13T10:53:07.562Z,101266.86
2024-03-13T10:55:54.732Z,101266.10
2024-03-13T10:58:44.165Z,101269.82
2024-03-13T11:01:34.127Z,101267.27
2024-03-13T11:04:21.947Z,101263.05
2024-03-13T11:07:14.036Z,101257.61
2024-03-13T11:10:01.079Z,101257.98
2024-03-13T11:12:52.611Z,101257.84
2024-03-13T11:15:45.824Z,101252.02
2024-03-13T11:18:33.311Z,101256.50
2024-03-13T11:21:41.047Z,101255.98
2024-03-13T11:24:32.936Z,101252.70
2024-03-13T11:27:26.666Z,101250.48
2024-03-13T11:30:21.269Z,101250.50
2024-03-13T11:33:11.339Z,101251.04
2024-03-13T11:36:02.838Z,101248.23
2024-03-13T11:38:50.301Z,101247.87
2024-03-13T11:41:37.517Z,101245.08
2024-03-13T11:44:29.028Z,101243.42
2024-03-13T11:47:17.921Z,101241.62
2024-03-13T11:50:10.665Z,101237.99
2024-03-13T11:53:03.816Z,101240.75
2024-03-13T11:55:54.425Z,101239.15
2024-03-13T11:58:42.633Z,101237.85
2024-03-13T12:01:32.051Z,101237.87
2024-03-13T12:04:20.958Z,101238.11
2024-03-13T12:07:18.448Z,101241.21
2024-03-13T12:10:05.957Z,101242.38
2024-03-13T12:12:54.086Z,101248.62
2024-03-13T12:15:45.626Z,101247.33
2024-03-13T12:18:34.825Z,101250.14
2024-03-13T12:21:26.987Z,101252.33
2024-03-13T12:24:14.488Z,101252.27
2024-03-13T12:27:01.821Z,101249.78
2024-03-13T12:29:50.083Z,101250.89
2024-03-13T12:32:37.337Z,101251.83
2024-03-13T12:35:26.571Z,101253.88
2024-03-13T12:38:16.099Z,101251.52
2024-03-13T12:41:03.510Z,101250.40
2024-03-13T12:43:52.581Z,101247.72
2024-03-13T12:46:41.602Z,101247.17
2024-03-13T12:49:28.752Z,101249.59
2024-03-13T12:52:16.622Z,101250.71
2024-03-13T12:55:11.788Z,101248.71
2024-03-13T12:58:07.056Z,101249.33
2024-03-13T13:00:54.121Z,101251.36
2024-03-13T13:03:42.570Z,101255.55
2024-03-13T13:06:31.569Z,101255.80
2024-03-13T13:09:19.598Z,101252.05
2024-03-13T13:12:14.741Z,101254.14
2024-03-13T13:15:02.692Z,101255.80
2024-03-13T13:17:53.492Z,101258.04
2024-03-13T13:20:42.281Z,101256.59
2024-03-13T13:23:29.420Z,101259.20
2024-03-13T13:26:16.860Z,101255.70
2024-03-13T13:31:54.022Z,101254.66
2024-03-13T13:34:40.951Z,101257.42
2024-03-13T13:37:28.859Z,101255.42
2024-03-13T13:40:18.095Z,101256.38
2024-03-13T13:43:08.217Z,101256.37
2024-03-13T13:45:55.280Z,101261.70
2024-03-13T13:48:44.617Z,101261.35
2024-03-13T13:51:32.010Z,101264.63
2024-03-13T13:54:19.655Z,101267.19
2024-03-13T13:57:10.309Z,101263.91
2024-03-13T13:59:58.839Z,101266.14
2024-03-13T14:02:50.092Z,101263.77
2024-03-13T14:05:37.510Z,101254.83
2024-03-13T14:08:24.789Z,101255.41
2024-03-13T14:11:12.342Z,101254.54
2024-03-13T14:14:01.271Z,101252.50
2024-03-13T14:16:48.380Z,101251.66
2024-03-13T14:19:36.797Z,101255.34
2024-03-13T14:22:23.856Z,101248.40
2024-03-13T14:25:15.164Z,101248.64
2024-03-13T14:28:02.179Z,101252.14
2024-03-13T14:30:52.986Z,101256.16
2024-03-13T14:33:41.525Z,101255.60
2024-03-13T14:36:29.584Z,101255.60
2024-03-13T14:39:18.179Z,101252.61
2024-03-13T14:42:15.353Z,101257.02
2024-03-13T14:45:08.554Z,101260.14
2024-03-13T14:47:58.109Z,101258.39
2024-03-13T14:50:45.383Z,101259.58
2024-03-13T14:53:32.469Z,101259.98
2024-03-13T14:56:20.506Z,101261.79
2024-03-13T14:59:07.515Z,101263.72
2024-03-13T15:01:54.631Z,101265.34
2024-03-13T15:04:41.747Z,101266.00
2024-03-13T15:07:28.953Z,101263.98
2024-03-13T15:10:17.635Z,101261.59
2024-03-13T15:13:07.357Z,101264.34
2024-03-13T15:15:54.831Z,101266.00
2024-03-13T15:18:44.011Z,101266.00
2024-03-13T15:21:31.594Z,101260.89
2024-03-13T15:24:21.262Z,101263.13
2024-03-13T15:27:09.002Z,101261.30
2024-03-13T15:29:56.183Z,101264.83
2024-03-13T15:32:43.575Z,101258.92
2024-03-13T15:35:31.514Z,101261.95
2024-03-13T15:38:18.526Z,101263.25
2024-03-13T15:41:06.663Z,101259.45
2024-03-13T15:43:54.329Z,101263.11
2024-03-13T15:46:43.218Z,101262.04
2024-03-13T15:49:30.276Z,101259.82
2024-03-13T15:52:19.656Z,101256.22
2024-03-13T15:55:09.462Z,101251.45
2024-03-13T15:57:56.665Z,101251.27
2024-03-13T16:00:43.979Z,101249.81
2024-03-13T16:03:31.011Z,101250.34
2024-03-13T16:06:19.362Z,101246.14
2024-03-13T16:09:12.177Z,101244.52
2024-03-13T16:12:04.289Z,101242.34
2024-03-13T16:14:52.180Z,101247.69
2024-03-13T16:17:40.131Z,101250.86
2024-03-13T16:20:27.839Z,101249.82
2024-03-13T16:23:15.217Z,101250.44
2024-03-13T16:26:02.326Z,101253.66
2024-03-13T16:28:50.669Z,101253.56
2024-03-13T16:31:37.591Z,101256.75
2024-03-13T16:34:25.161Z,101256.84
2024-03-13T16:37:17.383Z,101262.31
2024-03-13T16:40:05.501Z,101259.05
2024-03-13T16:42:53.678Z,101260.55
2024-03-13T16:45:40.695Z,101260.21
2024-03-13T16:48:28.249Z,101262.26
2024-03-13T16:51:15.413Z,101261.11
2024-03-13T16:54:02.581Z,101263.41
2024-03-13T16:56:49.675Z,101266.00
2024-03-13T16:59:36.691Z,101271.70
2024-03-13T17:02:24.258Z,101267.45
2024-03-13T17:05:12.752Z,101268.35
2024-03-13T17:08:01.726Z,101267.98
2024-03-13T17:10:50.411Z,101270.59
2024-03-13T17:13:42.385Z,101276.84
2024-03-13T17:16:31.144Z,101276.91
2024-03-13T17:19:23.338Z,101278.08
2024-03-13T17:22:12.274Z,101282.48
2024-03-13T17:24:59.290Z,101283.48
2024-03-13T17:27:48.247Z,101284.06
2024-03-13T17:30:35.721Z,101285.58
2024-03-13T17:33:22.963Z,101280.60
2024-03-13T17:36:18.651Z,101283.02
2024-03-13T17:39:06.367Z,101284.91
2024-03-13T17:41:53.893Z,101283.92
2024-03-13T17:44:41.976Z,101287.39
2024-03-13T17:47:29.911Z,101294.23
2024-03-13T17:50:17.384Z,101295.00
2024-03-13T17:53:05.298Z,101297.38
2024-03-13T17:55:52.438Z,101296.30
2024-03-13T17:58:40.883Z,101297.41
2024-03-13T18:01:32.819Z,101295.75
2024-03-13T18:04:20.618Z,101289.68
2024-03-13T18:07:12.634Z,101294.65
2024-03-13T18:09:59.697Z,101297.06
2024-03-13T18:12:50.093Z,101293.73
2024-03-13T18:15:38.128Z,101297.79
2024-03-13T18:18:27.346Z,101296.30
2024-03-13T18:21:15.057Z,101300.96
2024-03-13T18:24:04.098Z,101302.66
2024-03-13T18:26:51.803Z,101305.79
2024-03-13T18:29:39.244Z,101303.95
2024-03-13T18:32:26.798Z,101302.36
2024-03-13T18:35:14.547Z,101304.19
2024-03-13T18:38:02.034Z,101301.83
2024-03-13T18:40:49.977Z,101302.79
2024-03-13T18:43:36.942Z,101306.27
2024-03-13T18:46:24.563Z,101310.31
2024-03-13T18:49:12.221Z,101312.02
2024-03-13T18:51:59.368Z,101313.85
2024-03-13T18:54:46.905Z,101314.07
2024-03-13T18:57:33.942Z,101312.03
2024-03-13T19:00:23.095Z,101312.76
2024-03-13T19:03:10.554Z,101310.77
2024-03-13T19:05:58.726Z,101314.09
2024-03-13T19:08:46.182Z,101310.85
2024-03-13T19:11:34.244Z,101311.71
2024-03-13T19:14:21.680Z,101313.57
2024-03-13T19:17:11.764Z,101315.60
2024-03-13T19:19:59.147Z,101318.98
2024-03-13T19:22:47.222Z,101318.60
2024-03-13T19:25:36.467Z,101318.83
2024-03-13T19:28:24.911Z,101323.85
2024-03-13T19:31:17.751Z,101321.85
2024-03-13T19:34:08.974Z,101322.38
2024-03-13T19:36:56.298Z,101321.29
2024-03-13T19:39:43.685Z,101324.88
2024-03-13T19:42:31.204Z,101323.98
2024-03-13T19:45:18.449Z,101325.12
2024-03-13T19:48:06.961Z,101319.73
2024-03-13T19:50:54.670Z,101326.92
2024-03-13T19:53:42.114Z,101325.86
2024-03-13T19:56:29.771Z,101327.13
2024-03-13T19:59:16.823Z,101326.45
2024-03-13T20:02:04.866Z,101325.41
2024-03-13T20:04:52.285Z,101324.31
2024-03-13T20:07:43.632Z,101325.46
2024-03-13T20:10:31.214Z,101332.99
2024-03-13T20:13:18.444Z,101328.81
2024-03-13T20:16:07.528Z,101331.91
2024-03-13T20:18:54.861Z,101332.47
2024-03-13T20:21:42.151Z,101331.92
2024-03-13T20:24:29.469Z,101330.23
2024-03-13T20:27:20.135Z,101328.80
2024-03-13T20:30:09.049Z,101326.42
2024-03-13T20:32:58.220Z,101330.00
2024-03-13T20:35:46.789Z,101329.07
2024-03-13T20:38:34.446Z,101328.68
2024-03-13T20:41:21.835Z,101330.20
2024-03-13T20:44:09.037Z,101333.16
2024-03-13T20:46:57.845Z,101331.71
2024-03-13T20:49:47.066Z,101331.54
2024-03-13T20:52:34.993Z,101328.27
2024-03-13T20:55:22.011Z,101327.56
2024-03-13T20:58:09.136Z,101323.36
2024-03-13T21:00:56.506Z,101321.65
2024-03-13T21:03:43.697Z,101324.00
2024-03-13T21:06:32.177Z,101318.71
2024-03-13T21:09:23.576Z,101314.98
2024-03-13T21:12:10.734Z,101309.86
2024-03-13T21:14:59.127Z,101311.48
2024-03-13T21:17:46.213Z,101307.25
2024-03-13T21:20:33.616Z,101308.52
2024-03-13T21:23:20.726Z,101306.16
2024-03-13T21:26:08.905Z,101303.98
2024-03-13T21:28:58.628Z,101297.02
2024-03-13T21:31:46.535Z,101298.48
2024-03-13T21:34:38.592Z,101296.45
2024-03-13T21:37:28.342Z,101295.81
2024-03-13T21:40:18.142Z,101295.98
2024-03-13T21:43:05.154Z,101299.07
2024-03-13T21:45:52.255Z,101302.52
2024-03-13T21:48:39.503Z,101300.30
2024-03-13T21:51:28.975Z,101299.77
2024-03-13T21:54:15.928Z,101304.58
2024-03-13T21:57:06.655Z,101300.00
2024-03-13T21:59:53.847Z,101303.55
2024-03-13T22:02:42.228Z,101304.68
2024-03-13T22:05:29.750Z,101304.50
2024-03-13T22:08:16.772Z,101300.70
2024-03-13T22:11:05.957Z,101297.21
2024-03-13T22:13:54.796Z,101289.33
2024-03-13T22:16:41.912Z,101288.98
2024-03-13T22:19:29.148Z,101287.96
2024-03-13T22:22:16.467Z,101290.38
2024-03-13T22:25:03.737Z,101292.92
2024-03-13T22:27:51.212Z,101288.58
2024-03-13T22:30:38.576Z,101287.16
2024-03-13T22:33:25.952Z,101289.73
2024-03-13T22:36:15.045Z,101288.05
2024-03-13T22:39:02.385Z,101288.98
2024-03-13T22:41:49.857Z,101287.57
2024-03-13T22:44:37.092Z,101288.48
2024-03-13T22:47:24.624Z,101287.93
2024-03-13T22:50:12.995Z,101288.06
2024-03-13T22:53:00.140Z,101286.30
2024-03-13T22:55:48.423Z,101286.88
2024-03-13T22:58:35.666Z,101284.02
2024-03-13T23:01:24.670Z,101282.96
2024-03-13T23:04:12.603Z,101279.73
2024-03-13T23:06:59.692Z,101279.18
2024-03-13T23:09:48.840Z,101277.35
2024-03-13T23:12:36.754Z,101271.81
2024-03-13T23:15:23.731Z,101268.22
2024-03-13T23:18:11.316Z,101271.73
2024-03-13T23:20:59.952Z,101269.33
2024-03-13T23:23:47.771Z,101269.92
2024-03-13T23:26:35.033Z,101270.98
2024-03-13T23:29:22.036Z,101274.52
2024-03-13T23:32:09.042Z,101270.84
2024-03-13T23:34:56.514Z,101274.33
2024-03-13T23:37:44.442Z,101275.98
2024-03-13T23:40:31.999Z,101273.84
2024-03-13T23:43:19.433Z,101271.83
2024-03-13T23:46:06.866Z,101268.36
2024-03-13T23:48:54.870Z,101267.69
2024-03-13T23:51:44.336Z,101264.94
2024-03-13T23:54:31.937Z,101263.71
2024-03-13T23:57:19.058Z,101264.44
